Observations for LAKENHEATH RAF, United Kingdom (EGUL)

EGUL 190256Z AUTO 19009KT 9999 FEW160 18/13 A2983 RMK AO2 SLP104 T01780133 58003 $  
EGUL 190156Z AUTO 20010KT 9999 BKN150 18/13 A2984 RMK AO2 SLP108 T01790130 $
EGUL 190056Z AUTO 22014KT 9999 SCT160 18/13 A2984 RMK AO2 SLP108 T01840128 $
EGUL 182356Z AUTO 21013KT 9999 SCT160 18/13 A2984 RMK AO2 SLP108 60000 T01830132 10206 20179 402260170 51003 $  
EGUL 182256Z AUTO 21017G24KT 9999 BKN180 18/13 A2984 RMK AO2 SLP108 T01830132 $ 
EGUL 182156Z AUTO 21016G22KT 9999 FEW190 18/13 A2983 RMK AO2 SLP104 T01820131 $ 
EGUL 182056Z AUTO 21013KT 9999 CLR 18/13 A2983 RMK AO2 SLP104 60000 T01800133 51007 $   
EGUL 181956Z COR 20009KT 9999 CLR 18/13 A2983 RMK AO2A SLP104 T01840133 $ COR 2019  
EGUL 181856Z AUTO 21014KT 9999 -DZ SCT050 20/13 A2982 RMK AO2 DZB47 SLP101 P0000 T01970134 $
EGUL 181847Z AUTO 21014G20KT 9999 -DZ BKN050 20/13 A2982 RMK AO2 DZB47 SLP101 $
EGUL 181847Z COR 21014G20KT 9999 BKN050 20/13 A2982 RMK AO2A SLP101 $ COR 1905
EGUL 181857Z AUTO 22014KT 9999 SCT050 20/13 A2982 RMK AO2 DZE56 SLP101 $
EGUL 181756Z AUTO 22014KT 9999 SCT044 21/13 A2980 RMK AO2 SLP094 T02070131 10226 20207 52009 $  
EGUL 181656Z AUTO 22016G24KT 9999 SCT043 BKN060 22/13 A2979 RMK AO2 SLP091 T02180129 $  
EGUL 181556Z AUTO 24019G24KT 9999 SCT049 SCT055 22/13 A2979 RMK AO2 PK WND 24027/29 SLP091 T02190127 $  
EGUL 181456Z AUTO 25018G28KT 9999 SCT044 22/13 A2978 RMK AO2 PK WND 23028/1357 SLP087 T02190127 52021 $ 
EGUL 181356Z AUTO 24021G29KT 9999 CLR 22/12 A2975 RMK AO2 PK WND 24031/07 SLP077 T02200120 $
EGUL 181256Z AUTO 24024G30KT 9999 CLR 22/11 A2974 RMK AO2 PK WND 23033/04 SLP074 T02170114 $
EGUL 181156Z AUTO 22023G30KT 9999 CLR 22/12 A2971 RMK AO2 PK WND 23033/31 SLP064 T02150118 10225 20193 52023 $  
EGUL 181111Z AUTO 22026G32KT 9999 SCT026 BKN031 22/14 A2969 RMK AO2 SLP057 $
EGUL 181056Z AUTO 23018G30KT 9999 BKN023 BKN031 21/14 A2970 RMK AO2 PK WND 22036/01 SLP060 T02070143 $